sensor_id;sensor_type;location;lat;lon;timestamp;P1;durP1;ratioP1;P2;durP2;ratioP2
24483;SDS011;12643;51.620;7.548;2022-09-09T00:01:45;6.50;;;2.08;;
24483;SDS011;12643;51.620;7.548;2022-09-09T00:04:21;5.18;;;1.73;;
24483;SDS011;12643;51.620;7.548;2022-09-09T00:07:00;3.55;;;1.83;;
24483;SDS011;12643;51.620;7.548;2022-09-09T00:09:33;3.33;;;1.70;;
24483;SDS011;12643;51.620;7.548;2022-09-09T00:12:10;1.17;;;0.93;;
24483;SDS011;12643;51.620;7.548;2022-09-09T00:14:43;0.80;;;0.80;;
24483;SDS011;12643;51.620;7.548;2022-09-09T00:17:18;1.83;;;0.82;;
24483;SDS011;12643;51.620;7.548;2022-09-09T00:19:53;3.38;;;0.75;;
24483;SDS011;12643;51.620;7.548;2022-09-09T00:22:29;4.78;;;0.70;;
24483;SDS011;12643;51.620;7.548;2022-09-09T00:25:01;1.10;;;0.80;;
24483;SDS011;12643;51.620;7.548;2022-09-09T00:27:38;1.40;;;0.80;;
24483;SDS011;12643;51.620;7.548;2022-09-09T00:30:15;1.77;;;0.82;;
24483;SDS011;12643;51.620;7.548;2022-09-09T00:32:48;1.98;;;0.90;;
24483;SDS011;12643;51.620;7.548;2022-09-09T00:35:18;3.42;;;0.98;;
24483;SDS011;12643;51.620;7.548;2022-09-09T00:37:53;1.15;;;0.88;;
24483;SDS011;12643;51.620;7.548;2022-09-09T00:40:24;3.28;;;1.40;;
24483;SDS011;12643;51.620;7.548;2022-09-09T00:43:06;3.90;;;1.20;;
24483;SDS011;12643;51.620;7.548;2022-09-09T00:45:53;1.45;;;0.80;;
24483;SDS011;12643;51.620;7.548;2022-09-09T00:48:34;3.95;;;1.30;;
24483;SDS011;12643;51.620;7.548;2022-09-09T00:51:09;4.32;;;1.00;;
24483;SDS011;12643;51.620;7.548;2022-09-09T00:53:51;2.08;;;1.20;;
24483;SDS011;12643;51.620;7.548;2022-09-09T00:56:30;3.22;;;1.20;;
24483;SDS011;12643;51.620;7.548;2022-09-09T00:59:11;2.17;;;1.10;;
24483;SDS011;12643;51.620;7.548;2022-09-09T01:01:49;2.25;;;1.27;;
24483;SDS011;12643;51.620;7.548;2022-09-09T01:04:20;2.75;;;1.30;;
24483;SDS011;12643;51.620;7.548;2022-09-09T01:06:58;4.50;;;1.50;;
24483;SDS011;12643;51.620;7.548;2022-09-09T01:09:41;3.50;;;1.23;;
24483;SDS011;12643;51.620;7.548;2022-09-09T01:12:23;4.45;;;1.23;;
24483;SDS011;12643;51.620;7.548;2022-09-09T01:14:55;6.20;;;1.48;;
24483;SDS011;12643;51.620;7.548;2022-09-09T01:17:30;6.05;;;1.35;;
24483;SDS011;12643;51.620;7.548;2022-09-09T01:20:04;4.03;;;1.23;;
24483;SDS011;12643;51.620;7.548;2022-09-09T01:22:40;1.15;;;0.90;;
24483;SDS011;12643;51.620;7.548;2022-09-09T01:25:22;0.90;;;0.80;;
24483;SDS011;12643;51.620;7.548;2022-09-09T01:27:58;2.97;;;1.40;;
24483;SDS011;12643;51.620;7.548;2022-09-09T01:30:29;2.25;;;1.20;;
24483;SDS011;12643;51.620;7.548;2022-09-09T01:32:59;1.77;;;1.10;;
24483;SDS011;12643;51.620;7.548;2022-09-09T01:35:31;2.75;;;1.10;;
24483;SDS011;12643;51.620;7.548;2022-09-09T01:38:10;2.97;;;1.10;;
24483;SDS011;12643;51.620;7.548;2022-09-09T01:40:38;2.25;;;1.10;;
24483;SDS011;12643;51.620;7.548;2022-09-09T01:43:07;2.50;;;1.25;;
24483;SDS011;12643;51.620;7.548;2022-09-09T01:45:35;2.65;;;1.20;;
24483;SDS011;12643;51.620;7.548;2022-09-09T01:48:05;1.83;;;0.98;;
24483;SDS011;12643;51.620;7.548;2022-09-09T01:50:33;7.03;;;1.40;;
24483;SDS011;12643;51.620;7.548;2022-09-09T01:53:01;2.60;;;1.38;;
24483;SDS011;12643;51.620;7.548;2022-09-09T01:55:30;1.60;;;1.35;;
24483;SDS011;12643;51.620;7.548;2022-09-09T01:58:06;6.80;;;1.40;;
24483;SDS011;12643;51.620;7.548;2022-09-09T02:00:44;1.50;;;1.13;;
24483;SDS011;12643;51.620;7.548;2022-09-09T02:03:20;7.00;;;1.60;;
24483;SDS011;12643;51.620;7.548;2022-09-09T02:05:52;3.13;;;1.20;;
24483;SDS011;12643;51.620;7.548;2022-09-09T02:08:29;2.88;;;1.17;;
24483;SDS011;12643;51.620;7.548;2022-09-09T02:13:40;2.33;;;1.33;;
24483;SDS011;12643;51.620;7.548;2022-09-09T02:16:12;2.92;;;1.40;;
24483;SDS011;12643;51.620;7.548;2022-09-09T02:18:46;2.90;;;1.25;;
24483;SDS011;12643;51.620;7.548;2022-09-09T02:21:17;3.35;;;1.65;;
24483;SDS011;12643;51.620;7.548;2022-09-09T02:23:46;4.15;;;1.60;;
24483;SDS011;12643;51.620;7.548;2022-09-09T02:28:49;3.13;;;1.35;;
24483;SDS011;12643;51.620;7.548;2022-09-09T02:31:18;4.35;;;1.63;;
24483;SDS011;12643;51.620;7.548;2022-09-09T02:33:51;2.33;;;1.45;;
24483;SDS011;12643;51.620;7.548;2022-09-09T02:36:21;4.50;;;1.50;;
24483;SDS011;12643;51.620;7.548;2022-09-09T02:38:51;5.57;;;1.63;;
24483;SDS011;12643;51.620;7.548;2022-09-09T02:41:20;1.83;;;1.13;;
24483;SDS011;12643;51.620;7.548;2022-09-09T02:43:54;2.60;;;1.40;;
24483;SDS011;12643;51.620;7.548;2022-09-09T02:46:25;5.43;;;1.92;;
24483;SDS011;12643;51.620;7.548;2022-09-09T02:48:59;1.80;;;1.17;;
24483;SDS011;12643;51.620;7.548;2022-09-09T02:51:32;4.47;;;1.33;;
24483;SDS011;12643;51.620;7.548;2022-09-09T02:54:09;2.40;;;1.48;;
24483;SDS011;12643;51.620;7.548;2022-09-09T02:56:44;3.03;;;1.30;;
24483;SDS011;12643;51.620;7.548;2022-09-09T02:59:17;7.07;;;2.15;;
24483;SDS011;12643;51.620;7.548;2022-09-09T03:01:45;3.33;;;1.58;;
24483;SDS011;12643;51.620;7.548;2022-09-09T03:04:13;2.28;;;1.45;;
24483;SDS011;12643;51.620;7.548;2022-09-09T03:06:41;2.83;;;1.60;;
24483;SDS011;12643;51.620;7.548;2022-09-09T03:09:09;4.05;;;1.77;;
24483;SDS011;12643;51.620;7.548;2022-09-09T03:11:38;1.85;;;1.20;;
24483;SDS011;12643;51.620;7.548;2022-09-09T03:14:06;3.45;;;1.58;;
24483;SDS011;12643;51.620;7.548;2022-09-09T03:16:35;3.17;;;1.35;;
24483;SDS011;12643;51.620;7.548;2022-09-09T03:19:03;3.63;;;1.58;;
24483;SDS011;12643;51.620;7.548;2022-09-09T03:21:31;3.10;;;1.65;;
24483;SDS011;12643;51.620;7.548;2022-09-09T03:23:59;4.90;;;1.48;;
24483;SDS011;12643;51.620;7.548;2022-09-09T03:26:29;2.40;;;1.50;;
24483;SDS011;12643;51.620;7.548;2022-09-09T03:28:57;2.60;;;1.45;;
24483;SDS011;12643;51.620;7.548;2022-09-09T03:31:26;5.00;;;1.73;;
24483;SDS011;12643;51.620;7.548;2022-09-09T03:33:57;2.85;;;1.73;;
24483;SDS011;12643;51.620;7.548;2022-09-09T03:36:25;4.20;;;1.85;;
24483;SDS011;12643;51.620;7.548;2022-09-09T03:38:53;3.45;;;1.52;;
24483;SDS011;12643;51.620;7.548;2022-09-09T03:41:21;2.70;;;1.52;;
24483;SDS011;12643;51.620;7.548;2022-09-09T03:43:50;5.00;;;1.73;;
24483;SDS011;12643;51.620;7.548;2022-09-09T03:46:18;2.35;;;1.38;;
24483;SDS011;12643;51.620;7.548;2022-09-09T03:48:46;4.35;;;1.58;;
24483;SDS011;12643;51.620;7.548;2022-09-09T03:51:16;3.38;;;2.05;;
24483;SDS011;12643;51.620;7.548;2022-09-09T03:53:44;4.68;;;1.75;;
24483;SDS011;12643;51.620;7.548;2022-09-09T03:56:12;4.82;;;1.52;;
24483;SDS011;12643;51.620;7.548;2022-09-09T03:58:40;3.33;;;1.45;;
24483;SDS011;12643;51.620;7.548;2022-09-09T04:01:09;3.22;;;1.67;;
24483;SDS011;12643;51.620;7.548;2022-09-09T04:03:38;1.55;;;1.42;;
24483;SDS011;12643;51.620;7.548;2022-09-09T04:06:07;5.63;;;1.75;;
24483;SDS011;12643;51.620;7.548;2022-09-09T04:08:38;4.32;;;2.03;;
24483;SDS011;12643;51.620;7.548;2022-09-09T04:11:07;4.82;;;1.80;;
24483;SDS011;12643;51.620;7.548;2022-09-09T04:13:35;5.30;;;1.88;;
24483;SDS011;12643;51.620;7.548;2022-09-09T04:16:04;5.32;;;1.90;;
24483;SDS011;12643;51.620;7.548;2022-09-09T04:18:33;3.05;;;1.55;;
24483;SDS011;12643;51.620;7.548;2022-09-09T04:21:01;5.20;;;2.20;;
24483;SDS011;12643;51.620;7.548;2022-09-09T04:23:30;2.60;;;1.42;;
24483;SDS011;12643;51.620;7.548;2022-09-09T04:26:01;2.67;;;1.35;;
24483;SDS011;12643;51.620;7.548;2022-09-09T04:28:30;5.13;;;1.73;;
24483;SDS011;12643;51.620;7.548;2022-09-09T04:31:03;2.20;;;1.38;;
24483;SDS011;12643;51.620;7.548;2022-09-09T04:33:33;2.83;;;1.35;;
24483;SDS011;12643;51.620;7.548;2022-09-09T04:36:01;1.48;;;1.30;;
24483;SDS011;12643;51.620;7.548;2022-09-09T04:38:29;3.65;;;1.38;;
24483;SDS011;12643;51.620;7.548;2022-09-09T04:40:56;4.10;;;1.58;;
24483;SDS011;12643;51.620;7.548;2022-09-09T04:43:26;6.32;;;1.73;;
24483;SDS011;12643;51.620;7.548;2022-09-09T04:45:53;3.17;;;1.85;;
24483;SDS011;12643;51.620;7.548;2022-09-09T04:48:21;5.93;;;1.83;;
24483;SDS011;12643;51.620;7.548;2022-09-09T04:50:56;4.53;;;2.00;;
24483;SDS011;12643;51.620;7.548;2022-09-09T04:53:24;6.03;;;2.38;;
24483;SDS011;12643;51.620;7.548;2022-09-09T04:56:00;3.38;;;1.67;;
24483;SDS011;12643;51.620;7.548;2022-09-09T04:58:30;4.18;;;1.40;;
24483;SDS011;12643;51.620;7.548;2022-09-09T05:01:05;3.78;;;1.73;;
24483;SDS011;12643;51.620;7.548;2022-09-09T05:03:34;3.72;;;1.73;;
24483;SDS011;12643;51.620;7.548;2022-09-09T05:06:03;4.32;;;1.60;;
24483;SDS011;12643;51.620;7.548;2022-09-09T05:08:33;4.45;;;1.50;;
24483;SDS011;12643;51.620;7.548;2022-09-09T05:11:02;3.95;;;1.77;;
24483;SDS011;12643;51.620;7.548;2022-09-09T05:13:31;6.20;;;1.70;;
24483;SDS011;12643;51.620;7.548;2022-09-09T05:15:59;3.95;;;1.63;;
24483;SDS011;12643;51.620;7.548;2022-09-09T05:18:27;5.60;;;1.92;;
24483;SDS011;12643;51.620;7.548;2022-09-09T05:20:59;5.43;;;1.52;;
24483;SDS011;12643;51.620;7.548;2022-09-09T05:23:27;4.28;;;1.48;;
24483;SDS011;12643;51.620;7.548;2022-09-09T05:25:55;3.30;;;1.45;;
24483;SDS011;12643;51.620;7.548;2022-09-09T05:28:24;3.97;;;1.52;;
24483;SDS011;12643;51.620;7.548;2022-09-09T05:30:57;3.50;;;1.65;;
24483;SDS011;12643;51.620;7.548;2022-09-09T05:33:26;3.22;;;1.63;;
24483;SDS011;12643;51.620;7.548;2022-09-09T05:35:57;5.43;;;1.88;;
24483;SDS011;12643;51.620;7.548;2022-09-09T05:38:25;2.83;;;1.60;;
24483;SDS011;12643;51.620;7.548;2022-09-09T05:40:54;9.10;;;1.88;;
24483;SDS011;12643;51.620;7.548;2022-09-09T05:43:22;3.35;;;1.85;;
24483;SDS011;12643;51.620;7.548;2022-09-09T05:45:59;4.57;;;1.90;;
24483;SDS011;12643;51.620;7.548;2022-09-09T05:48:29;6.80;;;2.33;;
24483;SDS011;12643;51.620;7.548;2022-09-09T05:50:59;4.82;;;1.58;;
24483;SDS011;12643;51.620;7.548;2022-09-09T05:53:28;4.88;;;1.85;;
24483;SDS011;12643;51.620;7.548;2022-09-09T05:55:58;7.65;;;2.28;;
24483;SDS011;12643;51.620;7.548;2022-09-09T05:58:28;4.03;;;1.77;;
24483;SDS011;12643;51.620;7.548;2022-09-09T06:01:01;5.70;;;2.22;;
24483;SDS011;12643;51.620;7.548;2022-09-09T06:03:30;4.35;;;1.80;;
24483;SDS011;12643;51.620;7.548;2022-09-09T06:05:58;6.05;;;1.95;;
24483;SDS011;12643;51.620;7.548;2022-09-09T06:08:27;5.63;;;2.30;;
24483;SDS011;12643;51.620;7.548;2022-09-09T06:11:00;3.42;;;1.95;;
24483;SDS011;12643;51.620;7.548;2022-09-09T06:13:29;8.18;;;2.25;;
24483;SDS011;12643;51.620;7.548;2022-09-09T06:15:57;7.63;;;2.13;;
24483;SDS011;12643;51.620;7.548;2022-09-09T06:18:27;3.70;;;1.90;;
24483;SDS011;12643;51.620;7.548;2022-09-09T06:20:55;6.50;;;2.28;;
24483;SDS011;12643;51.620;7.548;2022-09-09T06:23:24;3.92;;;1.80;;
24483;SDS011;12643;51.620;7.548;2022-09-09T06:25:59;7.10;;;2.53;;
24483;SDS011;12643;51.620;7.548;2022-09-09T06:28:32;4.53;;;1.92;;
24483;SDS011;12643;51.620;7.548;2022-09-09T06:31:00;4.35;;;1.67;;
24483;SDS011;12643;51.620;7.548;2022-09-09T06:33:32;3.75;;;2.03;;
24483;SDS011;12643;51.620;7.548;2022-09-09T06:36:01;3.45;;;1.80;;
24483;SDS011;12643;51.620;7.548;2022-09-09T06:38:30;4.88;;;2.03;;
24483;SDS011;12643;51.620;7.548;2022-09-09T06:40:58;4.13;;;1.75;;
24483;SDS011;12643;51.620;7.548;2022-09-09T06:43:27;7.07;;;1.80;;
24483;SDS011;12643;51.620;7.548;2022-09-09T06:45:55;3.65;;;1.67;;
24483;SDS011;12643;51.620;7.548;2022-09-09T06:48:24;3.85;;;1.48;;
24483;SDS011;12643;51.620;7.548;2022-09-09T06:51:01;6.10;;;2.00;;
24483;SDS011;12643;51.620;7.548;2022-09-09T06:53:30;4.60;;;1.85;;
24483;SDS011;12643;51.620;7.548;2022-09-09T06:55:59;5.03;;;1.60;;
24483;SDS011;12643;51.620;7.548;2022-09-09T06:58:28;7.43;;;1.60;;
24483;SDS011;12643;51.620;7.548;2022-09-09T07:01:03;7.35;;;1.80;;
24483;SDS011;12643;51.620;7.548;2022-09-09T07:03:31;7.95;;;2.28;;
24483;SDS011;12643;51.620;7.548;2022-09-09T07:06:00;7.68;;;1.70;;
24483;SDS011;12643;51.620;7.548;2022-09-09T07:08:29;3.25;;;1.88;;
24483;SDS011;12643;51.620;7.548;2022-09-09T07:11:01;6.05;;;1.70;;
24483;SDS011;12643;51.620;7.548;2022-09-09T07:13:31;7.25;;;1.77;;
24483;SDS011;12643;51.620;7.548;2022-09-09T07:16:03;5.82;;;1.88;;
24483;SDS011;12643;51.620;7.548;2022-09-09T07:18:32;9.77;;;2.25;;
24483;SDS011;12643;51.620;7.548;2022-09-09T07:21:02;11.80;;;2.72;;
24483;SDS011;12643;51.620;7.548;2022-09-09T07:23:31;7.65;;;1.70;;
24483;SDS011;12643;51.620;7.548;2022-09-09T07:26:01;6.82;;;1.85;;
24483;SDS011;12643;51.620;7.548;2022-09-09T07:28:29;5.78;;;2.42;;
24483;SDS011;12643;51.620;7.548;2022-09-09T07:30:57;4.18;;;1.58;;
24483;SDS011;12643;51.620;7.548;2022-09-09T07:33:28;7.07;;;1.83;;
24483;SDS011;12643;51.620;7.548;2022-09-09T07:36:03;6.15;;;2.10;;
24483;SDS011;12643;51.620;7.548;2022-09-09T07:38:32;4.32;;;1.48;;
24483;SDS011;12643;51.620;7.548;2022-09-09T07:41:05;9.80;;;1.55;;
24483;SDS011;12643;51.620;7.548;2022-09-09T07:43:34;5.87;;;1.90;;
24483;SDS011;12643;51.620;7.548;2022-09-09T07:46:02;7.53;;;1.75;;
24483;SDS011;12643;51.620;7.548;2022-09-09T07:48:31;5.28;;;1.35;;
24483;SDS011;12643;51.620;7.548;2022-09-09T07:51:05;4.50;;;1.73;;
24483;SDS011;12643;51.620;7.548;2022-09-09T07:53:36;2.53;;;1.20;;
24483;SDS011;12643;51.620;7.548;2022-09-09T07:56:05;9.30;;;2.25;;
24483;SDS011;12643;51.620;7.548;2022-09-09T07:58:35;4.70;;;1.83;;
24483;SDS011;12643;51.620;7.548;2022-09-09T08:01:06;7.93;;;2.10;;
24483;SDS011;12643;51.620;7.548;2022-09-09T08:03:35;8.50;;;2.30;;
24483;SDS011;12643;51.620;7.548;2022-09-09T08:06:05;5.47;;;2.10;;
24483;SDS011;12643;51.620;7.548;2022-09-09T08:08:35;5.20;;;2.00;;
24483;SDS011;12643;51.620;7.548;2022-09-09T08:11:05;6.85;;;1.80;;
24483;SDS011;12643;51.620;7.548;2022-09-09T08:13:35;6.57;;;1.80;;
24483;SDS011;12643;51.620;7.548;2022-09-09T08:16:04;8.45;;;1.90;;
24483;SDS011;12643;51.620;7.548;2022-09-09T08:18:37;5.90;;;1.48;;
24483;SDS011;12643;51.620;7.548;2022-09-09T08:21:08;5.88;;;1.65;;
24483;SDS011;12643;51.620;7.548;2022-09-09T08:23:38;4.28;;;1.50;;
24483;SDS011;12643;51.620;7.548;2022-09-09T08:26:07;4.82;;;1.40;;
24483;SDS011;12643;51.620;7.548;2022-09-09T08:28:37;4.63;;;1.35;;
24483;SDS011;12643;51.620;7.548;2022-09-09T08:31:07;5.68;;;1.88;;
24483;SDS011;12643;51.620;7.548;2022-09-09T08:33:36;7.43;;;1.30;;
24483;SDS011;12643;51.620;7.548;2022-09-09T08:36:05;3.65;;;1.33;;
24483;SDS011;12643;51.620;7.548;2022-09-09T08:38:36;6.85;;;1.80;;
24483;SDS011;12643;51.620;7.548;2022-09-09T08:41:11;5.10;;;1.55;;
24483;SDS011;12643;51.620;7.548;2022-09-09T08:43:58;6.53;;;1.40;;
24483;SDS011;12643;51.620;7.548;2022-09-09T08:46:32;5.82;;;1.75;;
24483;SDS011;12643;51.620;7.548;2022-09-09T08:49:11;6.50;;;2.00;;
24483;SDS011;12643;51.620;7.548;2022-09-09T08:51:49;3.50;;;1.50;;
24483;SDS011;12643;51.620;7.548;2022-09-09T08:54:18;6.67;;;1.60;;
24483;SDS011;12643;51.620;7.548;2022-09-09T08:56:46;6.53;;;1.75;;
24483;SDS011;12643;51.620;7.548;2022-09-09T08:59:16;8.85;;;1.52;;
24483;SDS011;12643;51.620;7.548;2022-09-09T09:01:49;5.38;;;1.48;;
24483;SDS011;12643;51.620;7.548;2022-09-09T09:04:29;7.55;;;1.90;;
24483;SDS011;12643;51.620;7.548;2022-09-09T09:07:18;7.25;;;1.60;;
24483;SDS011;12643;51.620;7.548;2022-09-09T09:09:55;6.85;;;2.03;;
24483;SDS011;12643;51.620;7.548;2022-09-09T09:12:30;4.28;;;2.00;;
24483;SDS011;12643;51.620;7.548;2022-09-09T09:15:05;4.07;;;1.48;;
24483;SDS011;12643;51.620;7.548;2022-09-09T09:17:41;8.73;;;1.70;;
24483;SDS011;12643;51.620;7.548;2022-09-09T09:20:11;11.75;;;2.70;;
24483;SDS011;12643;51.620;7.548;2022-09-09T09:22:45;5.10;;;1.60;;
24483;SDS011;12643;51.620;7.548;2022-09-09T09:25:17;7.78;;;1.92;;
24483;SDS011;12643;51.620;7.548;2022-09-09T09:27:48;4.00;;;1.70;;
24483;SDS011;12643;51.620;7.548;2022-09-09T09:30:25;5.18;;;1.55;;
24483;SDS011;12643;51.620;7.548;2022-09-09T09:32:56;4.70;;;1.88;;
24483;SDS011;12643;51.620;7.548;2022-09-09T09:35:28;4.97;;;2.05;;
24483;SDS011;12643;51.620;7.548;2022-09-09T09:37:57;4.53;;;1.90;;
24483;SDS011;12643;51.620;7.548;2022-09-09T09:43:00;4.50;;;1.80;;
24483;SDS011;12643;51.620;7.548;2022-09-09T09:45:34;6.22;;;2.40;;
24483;SDS011;12643;51.620;7.548;2022-09-09T09:48:09;7.38;;;2.05;;
24483;SDS011;12643;51.620;7.548;2022-09-09T09:50:45;4.90;;;1.80;;
24483;SDS011;12643;51.620;7.548;2022-09-09T09:53:21;7.45;;;2.42;;
24483;SDS011;12643;51.620;7.548;2022-09-09T09:55:55;6.60;;;2.00;;
24483;SDS011;12643;51.620;7.548;2022-09-09T09:58:24;6.57;;;2.13;;
24483;SDS011;12643;51.620;7.548;2022-09-09T10:00:53;4.80;;;2.17;;
24483;SDS011;12643;51.620;7.548;2022-09-09T10:03:22;6.00;;;1.80;;
24483;SDS011;12643;51.620;7.548;2022-09-09T10:05:53;5.05;;;1.80;;
24483;SDS011;12643;51.620;7.548;2022-09-09T10:08:24;8.13;;;1.67;;
24483;SDS011;12643;51.620;7.548;2022-09-09T10:10:56;5.30;;;1.60;;
24483;SDS011;12643;51.620;7.548;2022-09-09T10:13:45;5.57;;;1.33;;
24483;SDS011;12643;51.620;7.548;2022-09-09T10:16:25;5.03;;;1.83;;
24483;SDS011;12643;51.620;7.548;2022-09-09T10:19:03;4.45;;;1.83;;
24483;SDS011;12643;51.620;7.548;2022-09-09T10:24:39;5.60;;;1.48;;
24483;SDS011;12643;51.620;7.548;2022-09-09T10:27:28;5.78;;;1.75;;
24483;SDS011;12643;51.620;7.548;2022-09-09T10:30:07;11.18;;;1.65;;
24483;SDS011;12643;51.620;7.548;2022-09-09T10:32:46;6.68;;;1.45;;
24483;SDS011;12643;51.620;7.548;2022-09-09T10:38:11;6.30;;;1.58;;
24483;SDS011;12643;51.620;7.548;2022-09-09T10:40:44;5.07;;;1.70;;
24483;SDS011;12643;51.620;7.548;2022-09-09T10:43:39;10.63;;;2.50;;
24483;SDS011;12643;51.620;7.548;2022-09-09T10:46:29;7.07;;;1.60;;
24483;SDS011;12643;51.620;7.548;2022-09-09T10:49:09;4.07;;;1.80;;
24483;SDS011;12643;51.620;7.548;2022-09-09T10:51:50;6.07;;;1.75;;
24483;SDS011;12643;51.620;7.548;2022-09-09T10:54:34;6.30;;;1.90;;
24483;SDS011;12643;51.620;7.548;2022-09-09T10:57:12;7.38;;;1.80;;
24483;SDS011;12643;51.620;7.548;2022-09-09T10:59:46;8.77;;;1.48;;
24483;SDS011;12643;51.620;7.548;2022-09-09T11:02:19;4.30;;;1.38;;
24483;SDS011;12643;51.620;7.548;2022-09-09T11:04:55;7.10;;;1.25;;
24483;SDS011;12643;51.620;7.548;2022-09-09T11:07:30;4.75;;;1.10;;
24483;SDS011;12643;51.620;7.548;2022-09-09T11:10:04;7.35;;;1.58;;
24483;SDS011;12643;51.620;7.548;2022-09-09T11:12:40;4.75;;;1.63;;
24483;SDS011;12643;51.620;7.548;2022-09-09T11:15:14;4.43;;;1.60;;
24483;SDS011;12643;51.620;7.548;2022-09-09T11:17:45;4.15;;;1.70;;
24483;SDS011;12643;51.620;7.548;2022-09-09T11:20:16;3.38;;;1.45;;
24483;SDS011;12643;51.620;7.548;2022-09-09T11:22:45;3.58;;;1.20;;
24483;SDS011;12643;51.620;7.548;2022-09-09T11:25:17;4.40;;;1.40;;
24483;SDS011;12643;51.620;7.548;2022-09-09T11:30:27;2.53;;;1.13;;
24483;SDS011;12643;51.620;7.548;2022-09-09T11:33:13;5.50;;;1.70;;
24483;SDS011;12643;51.620;7.548;2022-09-09T11:36:03;3.13;;;1.17;;
24483;SDS011;12643;51.620;7.548;2022-09-09T11:38:41;4.53;;;1.17;;
24483;SDS011;12643;51.620;7.548;2022-09-09T11:41:13;3.50;;;1.15;;
24483;SDS011;12643;51.620;7.548;2022-09-09T11:43:44;3.20;;;1.08;;
24483;SDS011;12643;51.620;7.548;2022-09-09T11:46:14;2.72;;;1.20;;
24483;SDS011;12643;51.620;7.548;2022-09-09T11:48:45;4.50;;;1.23;;
24483;SDS011;12643;51.620;7.548;2022-09-09T11:51:25;1.88;;;0.93;;
24483;SDS011;12643;51.620;7.548;2022-09-09T11:53:55;4.82;;;1.10;;
24483;SDS011;12643;51.620;7.548;2022-09-09T11:56:25;2.03;;;0.95;;
24483;SDS011;12643;51.620;7.548;2022-09-09T11:59:00;3.65;;;1.42;;
24483;SDS011;12643;51.620;7.548;2022-09-09T12:01:33;4.07;;;1.00;;
24483;SDS011;12643;51.620;7.548;2022-09-09T12:04:06;2.72;;;0.95;;
24483;SDS011;12643;51.620;7.548;2022-09-09T12:06:44;2.70;;;1.00;;
24483;SDS011;12643;51.620;7.548;2022-09-09T12:09:18;6.05;;;1.55;;
24483;SDS011;12643;51.620;7.548;2022-09-09T12:12:04;2.42;;;1.05;;
24483;SDS011;12643;51.620;7.548;2022-09-09T12:14:56;3.38;;;1.08;;
24483;SDS011;12643;51.620;7.548;2022-09-09T12:17:29;1.85;;;0.70;;
24483;SDS011;12643;51.620;7.548;2022-09-09T12:20:09;3.08;;;1.10;;
24483;SDS011;12643;51.620;7.548;2022-09-09T12:25:19;3.80;;;1.60;;
24483;SDS011;12643;51.620;7.548;2022-09-09T12:27:56;6.35;;;1.35;;
24483;SDS011;12643;51.620;7.548;2022-09-09T12:30:34;3.53;;;1.30;;
24483;SDS011;12643;51.620;7.548;2022-09-09T12:33:10;4.32;;;1.23;;
24483;SDS011;12643;51.620;7.548;2022-09-09T12:35:40;3.10;;;1.02;;
24483;SDS011;12643;51.620;7.548;2022-09-09T12:38:11;5.13;;;1.13;;
24483;SDS011;12643;51.620;7.548;2022-09-09T12:40:53;2.42;;;1.30;;
24483;SDS011;12643;51.620;7.548;2022-09-09T12:43:24;4.88;;;0.93;;
24483;SDS011;12643;51.620;7.548;2022-09-09T12:45:54;2.90;;;1.02;;
24483;SDS011;12643;51.620;7.548;2022-09-09T12:48:28;6.57;;;1.15;;
24483;SDS011;12643;51.620;7.548;2022-09-09T12:50:59;1.33;;;0.73;;
24483;SDS011;12643;51.620;7.548;2022-09-09T12:53:29;4.20;;;1.50;;
24483;SDS011;12643;51.620;7.548;2022-09-09T12:56:00;3.72;;;0.98;;
24483;SDS011;12643;51.620;7.548;2022-09-09T12:58:32;3.15;;;1.00;;
24483;SDS011;12643;51.620;7.548;2022-09-09T13:01:04;7.70;;;1.33;;
24483;SDS011;12643;51.620;7.548;2022-09-09T13:03:41;3.60;;;1.17;;
24483;SDS011;12643;51.620;7.548;2022-09-09T13:06:13;3.92;;;1.20;;
24483;SDS011;12643;51.620;7.548;2022-09-09T13:08:48;3.30;;;0.98;;
24483;SDS011;12643;51.620;7.548;2022-09-09T13:11:17;4.18;;;1.33;;
24483;SDS011;12643;51.620;7.548;2022-09-09T13:13:51;2.10;;;0.60;;
24483;SDS011;12643;51.620;7.548;2022-09-09T13:16:24;2.63;;;0.98;;
24483;SDS011;12643;51.620;7.548;2022-09-09T13:18:57;3.17;;;0.98;;
24483;SDS011;12643;51.620;7.548;2022-09-09T13:21:33;2.67;;;1.00;;
24483;SDS011;12643;51.620;7.548;2022-09-09T13:24:03;3.85;;;1.25;;
24483;SDS011;12643;51.620;7.548;2022-09-09T13:26:33;4.30;;;1.00;;
24483;SDS011;12643;51.620;7.548;2022-09-09T13:29:07;1.88;;;0.90;;
24483;SDS011;12643;51.620;7.548;2022-09-09T13:31:45;3.00;;;1.08;;
24483;SDS011;12643;51.620;7.548;2022-09-09T13:34:13;3.47;;;1.10;;
24483;SDS011;12643;51.620;7.548;2022-09-09T13:36:52;2.05;;;1.15;;
24483;SDS011;12643;51.620;7.548;2022-09-09T13:39:24;2.15;;;1.23;;
24483;SDS011;12643;51.620;7.548;2022-09-09T13:41:52;5.07;;;1.27;;
24483;SDS011;12643;51.620;7.548;2022-09-09T13:44:21;2.88;;;1.02;;
24483;SDS011;12643;51.620;7.548;2022-09-09T13:47:03;3.80;;;1.15;;
24483;SDS011;12643;51.620;7.548;2022-09-09T13:49:33;4.82;;;1.90;;
24483;SDS011;12643;51.620;7.548;2022-09-09T13:52:04;4.60;;;1.42;;
24483;SDS011;12643;51.620;7.548;2022-09-09T13:54:36;1.40;;;0.82;;
24483;SDS011;12643;51.620;7.548;2022-09-09T13:57:05;2.17;;;1.33;;
24483;SDS011;12643;51.620;7.548;2022-09-09T13:59:40;4.68;;;1.50;;
24483;SDS011;12643;51.620;7.548;2022-09-09T14:02:09;2.83;;;1.08;;
24483;SDS011;12643;51.620;7.548;2022-09-09T14:04:37;3.85;;;1.10;;
24483;SDS011;12643;51.620;7.548;2022-09-09T14:07:08;5.00;;;1.20;;
24483;SDS011;12643;51.620;7.548;2022-09-09T14:09:38;2.35;;;1.23;;
24483;SDS011;12643;51.620;7.548;2022-09-09T14:12:08;5.63;;;1.55;;
24483;SDS011;12643;51.620;7.548;2022-09-09T14:14:37;4.47;;;1.25;;
24483;SDS011;12643;51.620;7.548;2022-09-09T14:17:05;5.13;;;1.10;;
24483;SDS011;12643;51.620;7.548;2022-09-09T14:19:34;3.55;;;1.08;;
24483;SDS011;12643;51.620;7.548;2022-09-09T14:22:02;4.90;;;1.27;;
24483;SDS011;12643;51.620;7.548;2022-09-09T14:24:30;3.42;;;1.20;;
24483;SDS011;12643;51.620;7.548;2022-09-09T14:26:58;5.95;;;1.50;;
24483;SDS011;12643;51.620;7.548;2022-09-09T14:29:26;3.60;;;0.70;;
24483;SDS011;12643;51.620;7.548;2022-09-09T14:31:54;4.53;;;1.38;;
24483;SDS011;12643;51.620;7.548;2022-09-09T14:34:22;6.28;;;1.20;;
24483;SDS011;12643;51.620;7.548;2022-09-09T14:36:51;5.13;;;1.30;;
24483;SDS011;12643;51.620;7.548;2022-09-09T14:39:19;5.38;;;1.55;;
24483;SDS011;12643;51.620;7.548;2022-09-09T14:41:46;1.20;;;0.70;;
24483;SDS011;12643;51.620;7.548;2022-09-09T14:44:14;2.97;;;1.17;;
24483;SDS011;12643;51.620;7.548;2022-09-09T14:46:42;5.55;;;1.50;;
24483;SDS011;12643;51.620;7.548;2022-09-09T14:49:10;5.40;;;1.40;;
24483;SDS011;12643;51.620;7.548;2022-09-09T14:51:38;3.75;;;1.00;;
24483;SDS011;12643;51.620;7.548;2022-09-09T14:54:08;3.50;;;1.10;;
24483;SDS011;12643;51.620;7.548;2022-09-09T14:56:36;1.95;;;0.80;;
24483;SDS011;12643;51.620;7.548;2022-09-09T14:59:05;3.55;;;1.30;;
24483;SDS011;12643;51.620;7.548;2022-09-09T15:01:34;4.10;;;1.23;;
24483;SDS011;12643;51.620;7.548;2022-09-09T15:04:04;3.58;;;1.25;;
24483;SDS011;12643;51.620;7.548;2022-09-09T15:06:34;4.00;;;1.48;;
24483;SDS011;12643;51.620;7.548;2022-09-09T15:09:04;2.42;;;0.88;;
24483;SDS011;12643;51.620;7.548;2022-09-09T15:11:34;3.85;;;1.00;;
24483;SDS011;12643;51.620;7.548;2022-09-09T15:14:04;4.63;;;1.02;;
24483;SDS011;12643;51.620;7.548;2022-09-09T15:16:32;5.50;;;1.13;;
24483;SDS011;12643;51.620;7.548;2022-09-09T15:19:01;3.38;;;0.93;;
24483;SDS011;12643;51.620;7.548;2022-09-09T15:21:30;2.97;;;1.67;;
24483;SDS011;12643;51.620;7.548;2022-09-09T15:23:59;2.67;;;1.17;;
24483;SDS011;12643;51.620;7.548;2022-09-09T15:26:27;2.50;;;1.40;;
24483;SDS011;12643;51.620;7.548;2022-09-09T15:28:57;3.85;;;1.48;;
24483;SDS011;12643;51.620;7.548;2022-09-09T15:31:26;2.22;;;1.33;;
24483;SDS011;12643;51.620;7.548;2022-09-09T15:33:56;3.40;;;1.55;;
24483;SDS011;12643;51.620;7.548;2022-09-09T15:36:27;6.57;;;1.40;;